Time;durP1;ratioP1;P1;durP2;ratioP2;P2;SDS_P1;SDS_P2;PMS_P1;PMS_P2;Temp;Humidity;BMP_temperature;BMP_pressure;BME280_temperature;BME280_humidity;BME280_pressure;Samples;Min_cycle;Max_cycle;Signal;HPM_P1;HPM_P2
2021/10/21 00:00:08;;;;;;;4.03;1.40;;;14.20;99.90;;;;;;5011879;28;20190;-69
2021/10/21 00:02:37;;;;;;;5.43;1.60;;;14.10;99.90;;;;;;5012651;28;20517;-68
2021/10/21 00:05:09;;;;;;;4.27;1.20;;;14.00;99.90;;;;;;5007091;28;20198;-67
2021/10/21 00:07:37;;;;;;;5.80;1.30;;;14.00;99.90;;;;;;5010907;28;20193;-68
2021/10/21 00:10:07;;;;;;;3.50;1.20;;;13.90;99.90;;;;;;5009191;28;20205;-69
2021/10/21 00:12:35;;;;;;;9.37;1.50;;;13.80;99.90;;;;;;5009224;28;20908;-66
2021/10/21 00:15:05;;;;;;;7.77;1.37;;;13.70;99.90;;;;;;5004681;28;20190;-68
2021/10/21 00:17:33;;;;;;;1.93;1.07;;;13.70;99.90;;;;;;5011786;28;20295;-68
2021/10/21 00:20:02;;;;;;;11.93;1.30;;;13.60;99.90;;;;;;4999523;28;20215;-68
2021/10/21 00:22:32;;;;;;;3.40;1.57;;;13.50;99.90;;;;;;5008225;28;20265;-68
2021/10/21 00:25:01;;;;;;;6.57;1.33;;;13.50;99.90;;;;;;5005353;28;20194;-67
2021/10/21 00:27:29;;;;;;;5.20;1.33;;;13.40;99.90;;;;;;5010133;28;20198;-68
2021/10/21 00:29:58;;;;;;;3.70;1.33;;;13.40;99.90;;;;;;5005318;28;20202;-68
2021/10/21 00:32:27;;;;;;;8.23;1.43;;;13.40;99.90;;;;;;5008182;28;20222;-67
2021/10/21 00:34:55;;;;;;;6.33;1.30;;;13.50;99.90;;;;;;5009446;28;20626;-68
2021/10/21 00:37:24;;;;;;;4.67;1.20;;;13.50;99.90;;;;;;4992598;28;20471;-67
2021/10/21 00:39:54;;;;;;;5.20;1.40;;;13.50;99.90;;;;;;5008238;28;20653;-67
2021/10/21 00:42:22;;;;;;;2.70;1.07;;;13.50;99.90;;;;;;5008436;28;20198;-69
2021/10/21 00:44:50;;;;;;;2.93;1.50;;;13.50;99.90;;;;;;5006842;28;21201;-69
2021/10/21 00:47:19;;;;;;;3.27;1.30;;;13.50;99.90;;;;;;5008476;28;20680;-67
2021/10/21 00:49:48;;;;;;;2.87;1.20;;;13.50;99.90;;;;;;5005193;28;20201;-69
2021/10/21 00:52:17;;;;;;;4.57;1.37;;;13.50;99.90;;;;;;5009776;28;20214;-67
2021/10/21 00:54:49;;;;;;;2.37;1.40;;;13.40;99.90;;;;;;5006553;28;20194;-67
2021/10/21 00:57:21;;;;;;;3.87;1.50;;;13.40;99.90;;;;;;5007531;28;20209;-67
2021/10/21 00:59:50;;;;;;;5.17;1.70;;;13.50;99.90;;;;;;5010900;28;20255;-69
2021/10/21 01:02:19;;;;;;;4.37;1.40;;;13.40;99.90;;;;;;5003105;28;20214;-67
2021/10/21 01:04:48;;;;;;;4.23;1.40;;;13.40;99.90;;;;;;5005383;28;20198;-68
2021/10/21 01:07:16;;;;;;;2.63;1.70;;;13.40;99.90;;;;;;5016122;28;20260;-67
2021/10/21 01:09:45;;;;;;;2.73;1.20;;;13.40;99.90;;;;;;5002327;28;20197;-67
2021/10/21 01:12:14;;;;;;;6.00;1.60;;;13.40;99.90;;;;;;5016427;28;20210;-67
2021/10/21 01:14:45;;;;;;;5.60;1.90;;;13.30;99.90;;;;;;5001065;28;20259;-67
2021/10/21 01:17:15;;;;;;;4.07;1.33;;;13.30;99.90;;;;;;5007787;28;20202;-69
2021/10/21 01:19:44;;;;;;;5.10;1.63;;;13.30;99.90;;;;;;5019774;28;20200;-67
2021/10/21 01:22:14;;;;;;;6.87;1.90;;;13.20;99.90;;;;;;5008259;28;20193;-67
2021/10/21 01:24:42;;;;;;;4.40;1.37;;;13.20;99.90;;;;;;5022063;28;20411;-67
2021/10/21 01:27:11;;;;;;;5.93;1.53;;;13.10;99.90;;;;;;5010386;28;20253;-69
2021/10/21 01:29:39;;;;;;;7.33;1.80;;;13.00;99.90;;;;;;5011324;28;20206;-66
2021/10/21 01:32:08;;;;;;;7.67;1.90;;;12.90;99.90;;;;;;5005143;28;20229;-67
2021/10/21 01:34:36;;;;;;;5.60;1.70;;;12.80;99.90;;;;;;5006614;28;20730;-69
2021/10/21 01:37:04;;;;;;;5.47;1.60;;;12.60;99.90;;;;;;5016478;28;20315;-67
2021/10/21 01:39:34;;;;;;;7.43;1.90;;;12.50;99.90;;;;;;5005014;28;20649;-68
2021/10/21 01:42:03;;;;;;;7.50;1.87;;;12.40;99.90;;;;;;5002513;28;20614;-67
2021/10/21 01:44:34;;;;;;;6.13;2.13;;;12.30;99.90;;;;;;5003048;28;20216;-67
2021/10/21 01:47:04;;;;;;;4.97;2.00;;;12.30;99.90;;;;;;5004237;28;20605;-70
2021/10/21 01:49:32;;;;;;;8.40;1.80;;;12.20;99.90;;;;;;5002833;28;20677;-69
2021/10/21 01:52:00;;;;;;;8.30;1.97;;;12.20;99.90;;;;;;5004723;28;20268;-69
2021/10/21 01:54:29;;;;;;;9.53;2.13;;;12.10;99.90;;;;;;5004287;28;20268;-67
2021/10/21 01:56:59;;;;;;;5.17;1.97;;;12.00;99.90;;;;;;5003094;28;20202;-68
2021/10/21 01:59:31;;;;;;;8.90;1.80;;;11.90;99.90;;;;;;5022201;28;20191;-68
2021/10/21 02:02:00;;;;;;;8.33;1.63;;;11.80;99.90;;;;;;5007282;28;20190;-66
2021/10/21 02:04:29;;;;;;;8.97;2.10;;;11.70;99.90;;;;;;5004034;28;20248;-67
2021/10/21 02:07:00;;;;;;;9.60;2.03;;;11.70;99.90;;;;;;5009489;28;20400;-67
2021/10/21 02:09:29;;;;;;;7.57;1.90;;;11.70;99.90;;;;;;5005087;28;20754;-68
2021/10/21 02:11:59;;;;;;;9.87;1.93;;;11.70;99.90;;;;;;5005428;28;20198;-68
2021/10/21 02:14:28;;;;;;;9.93;2.47;;;11.70;99.90;;;;;;5003493;28;20226;-67
2021/10/21 02:17:00;;;;;;;11.20;2.60;;;11.70;99.90;;;;;;5010725;28;20232;-69
2021/10/21 02:19:29;;;;;;;10.07;2.73;;;11.70;99.90;;;;;;5008285;28;20214;-68
2021/10/21 02:21:57;;;;;;;9.33;3.00;;;11.80;99.90;;;;;;5005558;28;20472;-69
2021/10/21 02:24:26;;;;;;;11.30;3.33;;;11.70;99.90;;;;;;5009540;28;20292;-68
2021/10/21 02:26:54;;;;;;;8.67;3.40;;;11.70;99.90;;;;;;5007440;28;20351;-68
2021/10/21 02:29:24;;;;;;;12.27;3.90;;;11.70;99.90;;;;;;5004227;28;20202;-68
2021/10/21 02:31:53;;;;;;;9.93;3.90;;;11.70;99.90;;;;;;5009167;28;20198;-68
2021/10/21 02:34:21;;;;;;;19.27;5.10;;;11.80;99.90;;;;;;5006847;28;20253;-69
2021/10/21 02:36:49;;;;;;;18.17;5.10;;;11.80;99.90;;;;;;5004775;28;20282;-68
2021/10/21 02:39:18;;;;;;;13.60;4.10;;;11.80;99.90;;;;;;5001974;28;20202;-69
2021/10/21 02:41:47;;;;;;;14.83;3.60;;;11.80;99.90;;;;;;5008464;28;20680;-68
2021/10/21 02:44:15;;;;;;;15.63;4.60;;;11.70;99.90;;;;;;5003577;28;20268;-69
2021/10/21 02:46:45;;;;;;;13.73;4.10;;;11.70;99.90;;;;;;5003545;28;20607;-69
2021/10/21 02:49:14;;;;;;;9.93;3.07;;;11.70;99.90;;;;;;5001228;28;20217;-68
2021/10/21 02:51:42;;;;;;;10.90;3.07;;;11.70;99.90;;;;;;5002564;28;20189;-68
2021/10/21 02:54:11;;;;;;;10.57;2.90;;;11.60;99.90;;;;;;5004118;28;20727;-68
2021/10/21 02:56:40;;;;;;;9.47;2.50;;;11.60;99.90;;;;;;5004405;28;20194;-68
2021/10/21 02:59:08;;;;;;;6.50;2.00;;;11.50;99.90;;;;;;5006932;28;20715;-68
2021/10/21 03:01:37;;;;;;;6.23;1.87;;;11.50;99.90;;;;;;5001344;28;20251;-68
2021/10/21 03:04:07;;;;;;;7.53;2.00;;;11.50;99.90;;;;;;5010282;28;20260;-68
2021/10/21 03:06:35;;;;;;;3.53;1.67;;;11.50;99.90;;;;;;5004468;28;20206;-68
2021/10/21 03:09:04;;;;;;;9.80;1.50;;;11.40;99.90;;;;;;5007281;28;20237;-68
2021/10/21 03:11:32;;;;;;;4.40;1.60;;;11.40;99.90;;;;;;5001837;28;20210;-68
2021/10/21 03:14:01;;;;;;;9.13;1.67;;;11.40;99.90;;;;;;5004808;28;20632;-68
2021/10/21 03:16:34;;;;;;;6.67;1.73;;;11.40;99.90;;;;;;5009505;28;20234;-68
2021/10/21 03:19:03;;;;;;;6.90;1.53;;;11.40;99.90;;;;;;5010710;28;20202;-68
2021/10/21 03:21:33;;;;;;;5.53;1.63;;;11.40;99.90;;;;;;5004166;28;20621;-68
2021/10/21 03:24:02;;;;;;;3.90;1.13;;;11.40;99.90;;;;;;5005949;28;20233;-68
2021/10/21 03:26:31;;;;;;;4.53;1.23;;;11.40;99.90;;;;;;5006596;28;20201;-68
2021/10/21 03:28:59;;;;;;;3.93;1.30;;;11.30;99.90;;;;;;5009436;28;20221;-69
2021/10/21 03:31:29;;;;;;;2.83;1.33;;;11.30;99.90;;;;;;5003559;28;20669;-69
2021/10/21 03:33:58;;;;;;;2.60;1.60;;;11.10;99.90;;;;;;5008076;28;20217;-70
2021/10/21 03:36:26;;;;;;;10.17;1.77;;;11.00;99.90;;;;;;5002850;28;20731;-68
2021/10/21 03:38:58;;;;;;;11.00;1.67;;;10.90;99.90;;;;;;5002261;28;20196;-69
2021/10/21 03:41:27;;;;;;;11.00;2.07;;;10.80;99.90;;;;;;5004219;28;20624;-68
2021/10/21 03:43:55;;;;;;;10.00;2.03;;;10.80;99.90;;;;;;5008594;28;20279;-71
2021/10/21 03:46:26;;;;;;;11.20;2.20;;;10.70;99.90;;;;;;5005743;28;20201;-68
2021/10/21 03:48:55;;;;;;;15.30;2.40;;;10.60;99.90;;;;;;5007708;28;20202;-69
2021/10/21 03:51:23;;;;;;;10.57;2.20;;;10.60;99.90;;;;;;5008126;28;20433;-69
2021/10/21 03:53:51;;;;;;;9.87;2.17;;;10.50;99.90;;;;;;5007343;28;20218;-70
2021/10/21 03:56:21;;;;;;;8.50;2.07;;;10.50;99.90;;;;;;5008448;28;20198;-69
2021/10/21 03:58:50;;;;;;;9.33;2.20;;;10.50;99.90;;;;;;5012098;28;20245;-70
2021/10/21 04:01:18;;;;;;;12.83;2.27;;;10.50;99.90;;;;;;5007924;28;20264;-68
2021/10/21 04:03:47;;;;;;;13.67;2.20;;;10.50;99.90;;;;;;5026479;28;20555;-70
2021/10/21 04:06:16;;;;;;;11.37;2.10;;;10.50;99.90;;;;;;5010109;28;20217;-68
2021/10/21 04:08:44;;;;;;;8.53;2.13;;;10.50;99.90;;;;;;5008014;28;20581;-69
2021/10/21 04:11:13;;;;;;;9.83;2.13;;;10.50;99.90;;;;;;5009353;28;20199;-69
2021/10/21 04:13:42;;;;;;;6.43;2.00;;;10.50;99.90;;;;;;5008169;28;20205;-69
2021/10/21 04:16:11;;;;;;;9.50;2.23;;;10.40;99.90;;;;;;5003368;28;20202;-71
2021/10/21 04:18:40;;;;;;;9.67;2.23;;;10.40;99.90;;;;;;5024730;28;20301;-68
2021/10/21 04:21:10;;;;;;;10.17;2.10;;;10.40;99.90;;;;;;5013648;28;20205;-69
2021/10/21 04:23:38;;;;;;;14.33;2.37;;;10.40;99.90;;;;;;5007404;28;20237;-69
2021/10/21 04:26:07;;;;;;;12.03;2.63;;;10.40;99.90;;;;;;5004490;28;20657;-68
2021/10/21 04:28:36;;;;;;;10.93;2.10;;;10.40;99.90;;;;;;5014192;28;20190;-69
2021/10/21 04:31:08;;;;;;;13.60;2.13;;;10.40;99.90;;;;;;5002209;28;20203;-69
2021/10/21 04:33:37;;;;;;;9.70;2.30;;;10.40;99.90;;;;;;5006419;28;20280;-67
2021/10/21 04:36:05;;;;;;;9.67;2.33;;;10.40;99.90;;;;;;5022370;28;20221;-68
2021/10/21 04:38:34;;;;;;;22.40;2.67;;;10.40;99.90;;;;;;5009975;28;20252;-68
2021/10/21 04:41:03;;;;;;;17.47;2.93;;;10.40;99.90;;;;;;5007172;28;20619;-68
2021/10/21 04:43:31;;;;;;;7.90;2.40;;;10.40;99.90;;;;;;5006133;28;20685;-69
2021/10/21 04:46:00;;;;;;;10.20;2.33;;;10.30;99.90;;;;;;5012952;28;20193;-69
2021/10/21 04:48:30;;;;;;;13.70;3.20;;;10.30;99.90;;;;;;5007724;28;20226;-69
2021/10/21 04:50:59;;;;;;;14.27;3.10;;;10.30;99.90;;;;;;5006782;28;20226;-68
2021/10/21 04:53:29;;;;;;;15.00;3.37;;;10.30;99.90;;;;;;5012753;28;20210;-69
2021/10/21 04:55:58;;;;;;;15.57;2.73;;;10.30;99.90;;;;;;5011385;28;20233;-69
2021/10/21 04:58:26;;;;;;;12.97;2.80;;;10.30;99.90;;;;;;5008407;28;20253;-69
2021/10/21 05:00:55;;;;;;;14.40;3.30;;;10.30;99.90;;;;;;5008087;28;20259;-70
2021/10/21 05:03:24;;;;;;;11.77;2.90;;;10.20;99.90;;;;;;5000541;28;20210;-68
2021/10/21 05:05:54;;;;;;;16.43;4.07;;;10.20;99.90;;;;;;5015763;28;20230;-69
2021/10/21 05:08:23;;;;;;;15.00;4.27;;;10.20;99.90;;;;;;5008885;28;20202;-69
2021/10/21 05:10:51;;;;;;;16.30;3.50;;;10.20;99.90;;;;;;5006615;28;20217;-69
2021/10/21 05:13:19;;;;;;;12.90;4.27;;;10.20;99.90;;;;;;5008669;28;20657;-69
2021/10/21 05:15:48;;;;;;;19.27;4.60;;;10.20;99.90;;;;;;5003267;28;20271;-67
2021/10/21 05:18:16;;;;;;;15.87;4.13;;;10.20;99.90;;;;;;5002065;28;20729;-69
2021/10/21 05:20:45;;;;;;;13.37;3.33;;;10.20;99.90;;;;;;5005083;28;20206;-69
2021/10/21 05:23:15;;;;;;;15.27;3.43;;;10.20;99.90;;;;;;5007635;28;20291;-68
2021/10/21 05:25:43;;;;;;;15.97;3.67;;;10.20;99.90;;;;;;5005613;28;20201;-68
2021/10/21 05:28:11;;;;;;;19.03;3.93;;;10.20;99.90;;;;;;5007264;28;20608;-71
2021/10/21 05:30:40;;;;;;;15.43;3.63;;;10.20;99.90;;;;;;5005596;28;20183;-71
2021/10/21 05:33:09;;;;;;;17.83;3.67;;;10.20;99.90;;;;;;5004845;28;20279;-71
2021/10/21 05:35:37;;;;;;;10.27;3.20;;;10.30;99.90;;;;;;5003627;28;20225;-69
2021/10/21 05:38:05;;;;;;;17.83;3.07;;;10.40;99.90;;;;;;5003710;28;20202;-68
2021/10/21 05:40:36;;;;;;;12.97;3.37;;;10.40;99.90;;;;;;5004910;28;20469;-71
2021/10/21 05:43:04;;;;;;;7.97;2.50;;;10.50;99.90;;;;;;5005711;28;20518;-71
2021/10/21 05:45:33;;;;;;;11.50;3.33;;;10.40;99.90;;;;;;4999787;28;20190;-70
2021/10/21 05:48:01;;;;;;;16.27;3.17;;;10.40;99.90;;;;;;5003404;28;20289;-71
2021/10/21 05:50:30;;;;;;;14.00;2.97;;;10.40;99.90;;;;;;5006871;28;20205;-71
2021/10/21 05:52:58;;;;;;;10.90;2.87;;;10.40;99.90;;;;;;5005819;28;20199;-71
2021/10/21 05:55:27;;;;;;;13.70;3.13;;;10.40;99.90;;;;;;5019898;28;20385;-71
2021/10/21 05:57:56;;;;;;;8.87;3.13;;;10.40;99.90;;;;;;5003491;28;20194;-71
2021/10/21 06:00:25;;;;;;;15.97;3.30;;;10.50;99.90;;;;;;5004349;28;20224;-70
2021/10/21 06:02:54;;;;;;;11.53;3.03;;;10.50;99.90;;;;;;5000218;28;20252;-71
2021/10/21 06:05:23;;;;;;;13.87;3.53;;;10.50;99.90;;;;;;5002244;28;20205;-71
2021/10/21 06:07:51;;;;;;;8.27;2.53;;;10.40;99.90;;;;;;5001357;28;20199;-71
2021/10/21 06:10:20;;;;;;;13.60;3.00;;;10.50;99.90;;;;;;4995289;28;20214;-70
2021/10/21 06:12:51;;;;;;;12.57;2.83;;;10.40;99.90;;;;;;4996724;28;20195;-70
2021/10/21 06:15:22;;;;;;;5.90;2.40;;;10.40;99.90;;;;;;5003774;28;20221;-71
2021/10/21 06:17:50;;;;;;;7.83;2.87;;;10.50;99.90;;;;;;5004603;28;20412;-70
2021/10/21 06:20:19;;;;;;;8.10;2.83;;;10.50;99.90;;;;;;5003503;28;20253;-71
2021/10/21 06:22:48;;;;;;;10.40;2.57;;;10.60;99.90;;;;;;4997909;28;20250;-71
2021/10/21 06:25:17;;;;;;;9.83;2.70;;;10.70;99.90;;;;;;5019179;28;20194;-71
2021/10/21 06:27:45;;;;;;;13.93;2.70;;;10.60;99.90;;;;;;5003216;28;20194;-71
2021/10/21 06:30:13;;;;;;;17.63;3.20;;;10.60;99.90;;;;;;5004915;28;20194;-69
2021/10/21 06:32:43;;;;;;;13.40;3.10;;;10.60;99.90;;;;;;5007068;28;20665;-70
2021/10/21 06:35:15;;;;;;;8.10;2.70;;;10.50;99.90;;;;;;5002331;28;20695;-70
2021/10/21 06:37:46;;;;;;;12.17;2.53;;;10.50;99.90;;;;;;5002271;28;20198;-71
2021/10/21 06:40:14;;;;;;;12.10;3.10;;;10.50;99.90;;;;;;5004484;28;20252;-70
2021/10/21 07:04:52;;;;;;;11.83;2.50;;;10.40;99.90;;;;;;5138278;27;20556;-71
2021/10/21 07:07:30;;;;;;;8.93;2.43;;;10.40;99.90;;;;;;5138868;27;20186;-70
2021/10/21 07:09:59;;;;;;;6.80;2.17;;;10.40;99.90;;;;;;5122002;28;20182;-70
2021/10/21 07:12:28;;;;;;;5.43;1.90;;;10.40;99.90;;;;;;5115802;28;20186;-71
2021/10/21 07:14:56;;;;;;;9.53;2.30;;;10.40;99.90;;;;;;5123077;28;20190;-71
2021/10/21 07:17:25;;;;;;;9.47;2.30;;;10.40;99.90;;;;;;5115069;28;20212;-70
2021/10/21 07:19:55;;;;;;;8.73;2.80;;;10.40;99.90;;;;;;5124034;28;20202;-70
2021/10/21 07:22:23;;;;;;;8.57;2.30;;;10.40;99.90;;;;;;5120812;28;20193;-70
2021/10/21 07:24:52;;;;;;;6.37;2.20;;;10.40;99.90;;;;;;5124343;28;20191;-70
2021/10/21 07:27:21;;;;;;;9.30;2.30;;;10.50;99.90;;;;;;5124718;28;20202;-70
2021/10/21 07:29:49;;;;;;;6.23;2.13;;;10.50;99.90;;;;;;5119403;28;20203;-71
2021/10/21 07:32:20;;;;;;;13.40;2.17;;;10.60;99.90;;;;;;5109354;27;20215;-71
2021/10/21 07:34:48;;;;;;;6.93;2.50;;;10.70;99.90;;;;;;5118934;28;20706;-70
2021/10/21 07:37:18;;;;;;;7.50;2.10;;;10.80;99.90;;;;;;5118937;28;20650;-70
2021/10/21 07:39:48;;;;;;;5.43;2.10;;;10.90;99.90;;;;;;5113767;27;20658;-70
2021/10/21 07:42:17;;;;;;;3.80;1.97;;;10.90;99.90;;;;;;5116023;27;20262;-70
2021/10/21 07:44:47;;;;;;;8.93;2.10;;;10.90;99.90;;;;;;5118734;27;20187;-70
2021/10/21 07:47:16;;;;;;;5.90;2.27;;;10.90;99.90;;;;;;5107809;28;20194;-71
2021/10/21 07:49:45;;;;;;;11.50;2.50;;;11.00;99.90;;;;;;5114365;28;20509;-70
2021/10/21 07:52:16;;;;;;;7.63;2.13;;;11.10;99.90;;;;;;5120123;28;20205;-71
2021/10/21 07:54:47;;;;;;;9.03;2.00;;;11.10;99.90;;;;;;5119409;27;20256;-70
2021/10/21 07:57:19;;;;;;;8.77;2.17;;;11.20;99.90;;;;;;5121605;28;20741;-71
2021/10/21 07:59:48;;;;;;;7.60;1.97;;;11.30;99.90;;;;;;5109536;27;20202;-70
2021/10/21 08:02:19;;;;;;;4.13;1.87;;;11.40;99.90;;;;;;5120946;28;20202;-70
2021/10/21 08:04:50;;;;;;;8.43;1.90;;;11.50;99.90;;;;;;5100688;27;20207;-70
2021/10/21 08:07:18;;;;;;;7.60;2.10;;;11.70;99.90;;;;;;5098617;28;20191;-70
2021/10/21 08:09:48;;;;;;;3.50;1.80;;;11.80;99.90;;;;;;5110773;28;20191;-70
2021/10/21 08:12:16;;;;;;;7.13;2.10;;;12.10;99.90;;;;;;5108151;28;20210;-71
2021/10/21 08:14:45;;;;;;;5.10;2.00;;;12.20;99.90;;;;;;5107159;28;20213;-69
2021/10/21 08:17:16;;;;;;;4.37;1.90;;;12.30;99.90;;;;;;5100390;28;20223;-70
2021/10/21 08:19:45;;;;;;;4.83;1.70;;;12.40;99.90;;;;;;5099703;28;20206;-69
2021/10/21 08:22:14;;;;;;;8.17;1.80;;;12.40;99.90;;;;;;5109127;28;20218;-70
2021/10/21 08:24:43;;;;;;;7.20;1.97;;;12.20;99.90;;;;;;5105506;28;20222;-69
2021/10/21 08:27:13;;;;;;;9.27;1.70;;;12.20;99.90;;;;;;5103484;28;20195;-69
2021/10/21 08:29:41;;;;;;;8.23;2.20;;;12.10;99.90;;;;;;5110347;28;20647;-69
2021/10/21 08:32:12;;;;;;;7.90;2.40;;;12.00;99.90;;;;;;5106995;28;20575;-70
2021/10/21 08:34:41;;;;;;;7.97;2.13;;;11.90;99.90;;;;;;5105044;28;20660;-70
2021/10/21 08:37:10;;;;;;;9.60;2.40;;;11.80;99.90;;;;;;5104884;28;20199;-70
2021/10/21 08:39:40;;;;;;;8.30;2.60;;;11.80;99.90;;;;;;5098999;28;20218;-70
2021/10/21 08:42:10;;;;;;;8.10;1.73;;;11.80;99.90;;;;;;5101828;28;20214;-70
2021/10/21 08:44:41;;;;;;;5.43;2.03;;;11.90;99.90;;;;;;5106656;28;20217;-70
2021/10/21 08:47:10;;;;;;;7.87;2.10;;;12.10;99.90;;;;;;5104742;28;20607;-70
2021/10/21 08:49:40;;;;;;;6.87;2.07;;;12.30;99.90;;;;;;5097765;28;20203;-70
2021/10/21 08:52:11;;;;;;;9.20;2.57;;;12.40;99.90;;;;;;5101934;28;20261;-70
2021/10/21 08:54:40;;;;;;;3.63;2.13;;;12.50;99.90;;;;;;5102908;28;20195;-70
2021/10/21 08:57:11;;;;;;;5.03;2.30;;;12.50;99.90;;;;;;5101042;28;20209;-70
2021/10/21 08:59:44;;;;;;;7.93;2.60;;;12.40;99.90;;;;;;5098790;28;20205;-69
2021/10/21 09:02:17;;;;;;;9.97;2.47;;;12.40;99.90;;;;;;5099646;28;20227;-70
2021/10/21 09:04:59;;;;;;;7.97;2.60;;;12.40;99.90;;;;;;5118944;27;20712;-68
2021/10/21 09:10:14;;;;;;;5.63;2.23;;;12.40;99.90;;;;;;5108072;28;20353;-70
2021/10/21 09:12:45;;;;;;;10.90;2.67;;;12.30;99.90;;;;;;5099382;28;20191;-71
2021/10/21 09:15:17;;;;;;;11.63;2.93;;;12.20;99.90;;;;;;5114999;27;20183;-71
2021/10/21 09:17:47;;;;;;;8.47;2.30;;;12.10;99.90;;;;;;5123755;27;20201;-67
2021/10/21 09:20:38;;;;;;;8.83;2.10;;;11.90;99.90;;;;;;5108146;28;20186;-71
2021/10/21 09:23:10;;;;;;;10.47;2.50;;;11.80;99.90;;;;;;5103437;28;20218;-72
2021/10/21 09:25:40;;;;;;;10.30;2.50;;;11.60;99.90;;;;;;5103213;28;20634;-70
2021/10/21 09:28:24;;;;;;;9.27;2.00;;;11.40;99.90;;;;;;5101475;27;20661;-72
2021/10/21 09:30:57;;;;;;;7.63;2.13;;;11.20;99.90;;;;;;5095202;28;20405;-71
2021/10/21 09:33:26;;;;;;;7.37;2.00;;;11.10;99.90;;;;;;5101548;28;20199;-71
2021/10/21 09:35:58;;;;;;;8.93;1.93;;;11.00;99.90;;;;;;5104895;28;20214;-70
2021/10/21 09:38:29;;;;;;;11.20;2.40;;;10.90;99.90;;;;;;5098490;28;20363;-71
2021/10/21 09:41:05;;;;;;;16.63;2.47;;;10.90;99.90;;;;;;5098226;28;20743;-71
2021/10/21 09:43:35;;;;;;;9.03;2.40;;;10.90;99.90;;;;;;5122216;27;20187;-71
2021/10/21 09:46:06;;;;;;;6.53;2.27;;;10.90;99.90;;;;;;5102796;28;20228;-72
2021/10/21 09:48:35;;;;;;;6.07;2.00;;;10.90;99.90;;;;;;5100698;28;20582;-70
2021/10/21 09:51:03;;;;;;;7.50;2.00;;;10.80;99.90;;;;;;5098193;28;20552;-71
2021/10/21 09:53:32;;;;;;;5.20;2.00;;;10.90;99.90;;;;;;5098878;28;20206;-70
2021/10/21 09:56:05;;;;;;;10.27;1.93;;;10.90;99.90;;;;;;5097793;28;20203;-70
2021/10/21 09:58:35;;;;;;;6.20;2.00;;;10.90;99.90;;;;;;5100363;28;20218;-70
2021/10/21 10:01:10;;;;;;;5.87;1.83;;;11.00;99.90;;;;;;5099617;27;20283;-70
2021/10/21 10:03:41;;;;;;;16.07;2.63;;;11.20;99.90;;;;;;5097145;28;20715;-70
2021/10/21 10:06:11;;;;;;;8.50;2.23;;;11.30;99.90;;;;;;5104960;27;20260;-70
2021/10/21 10:08:39;;;;;;;8.77;2.50;;;11.30;99.90;;;;;;5115721;27;20689;-71
2021/10/21 10:11:12;;;;;;;11.23;2.30;;;11.30;99.90;;;;;;5095895;28;20192;-70
2021/10/21 10:13:42;;;;;;;10.97;2.50;;;11.40;99.90;;;;;;5096718;28;20283;-70
2021/10/21 10:16:12;;;;;;;10.93;2.53;;;11.50;99.90;;;;;;5092793;28;20730;-70
2021/10/21 10:18:43;;;;;;;6.90;2.90;;;11.40;99.90;;;;;;5099988;28;20234;-70
2021/10/21 10:21:17;;;;;;;6.40;2.27;;;11.40;99.90;;;;;;5116835;27;20222;-70
2021/10/21 10:23:51;;;;;;;7.97;2.17;;;11.40;99.90;;;;;;5100328;28;20543;-71
2021/10/21 10:26:43;;;;;;;10.20;2.53;;;11.60;99.90;;;;;;5100997;28;20194;-70
2021/10/21 10:29:14;;;;;;;11.50;2.10;;;12.00;99.90;;;;;;5098658;28;20256;-70
2021/10/21 10:31:45;;;;;;;8.27;1.97;;;12.30;99.90;;;;;;5093862;28;20228;-70
2021/10/21 10:35:00;;;;;;;9.70;2.50;;;12.30;99.90;;;;;;5094974;28;20646;-70
2021/10/21 10:37:47;;;;;;;9.33;2.00;;;12.40;99.90;;;;;;5034197;28;20596;-70
2021/10/21 10:40:29;;;;;;;8.40;2.20;;;12.20;99.90;;;;;;5095235;28;20221;-70
2021/10/21 10:43:00;;;;;;;8.63;2.10;;;12.40;99.90;;;;;;5097718;28;20256;-71
2021/10/21 10:45:52;;;;;;;3.53;2.00;;;12.40;99.90;;;;;;5097826;28;20261;-70
2021/10/21 10:48:51;;;;;;;7.80;1.93;;;12.60;99.90;;;;;;5101923;28;20285;-70
2021/10/21 10:51:21;;;;;;;5.93;2.03;;;12.50;99.90;;;;;;5096888;28;20225;-71
2021/10/21 10:54:05;;;;;;;7.30;2.50;;;12.40;99.90;;;;;;5093788;28;20282;-70
2021/10/21 10:56:46;;;;;;;9.17;2.10;;;12.20;99.90;;;;;;5101612;28;20268;-71
2021/10/21 10:59:31;;;;;;;3.53;1.93;;;12.10;99.90;;;;;;5096153;28;20203;-70
2021/10/21 11:02:01;;;;;;;7.97;2.27;;;11.60;99.90;;;;;;5099805;28;20202;-70
2021/10/21 11:05:07;;;;;;;11.40;2.27;;;11.30;99.90;;;;;;5102360;28;20306;-71
2021/10/21 11:07:53;;;;;;;3.83;1.87;;;11.10;99.90;;;;;;5100831;28;20479;-71
2021/10/21 11:10:40;;;;;;;2.13;1.50;;;11.10;99.90;;;;;;5095816;28;20267;-71
2021/10/21 11:13:20;;;;;;;7.97;1.93;;;11.00;99.90;;;;;;5095675;28;20211;-72
2021/10/21 11:15:49;;;;;;;5.60;1.70;;;11.00;99.90;;;;;;5105756;28;20186;-71
2021/10/21 11:18:26;;;;;;;2.20;1.60;;;11.00;99.90;;;;;;5096741;28;20199;-70
2021/10/21 11:20:57;;;;;;;6.97;2.50;;;11.00;99.90;;;;;;5102549;28;20233;-71
2021/10/21 11:23:42;;;;;;;9.13;1.83;;;11.00;99.90;;;;;;5099740;28;21037;-71
2021/10/21 11:26:23;;;;;;;6.77;1.60;;;11.00;99.90;;;;;;5099268;28;20207;-70
2021/10/21 11:28:54;;;;;;;5.13;1.90;;;11.20;99.90;;;;;;5105893;28;20675;-71
2021/10/21 11:31:23;;;;;;;7.13;1.77;;;11.60;99.90;;;;;;5087009;28;20195;-71
2021/10/21 11:33:51;;;;;;;4.07;1.70;;;11.80;99.90;;;;;;5101768;28;20203;-71
2021/10/21 11:36:24;;;;;;;5.43;2.30;;;12.00;99.90;;;;;;5107167;28;20592;-71
2021/10/21 11:39:05;;;;;;;8.50;2.00;;;12.00;99.90;;;;;;5107723;28;20203;-71
2021/10/21 11:41:34;;;;;;;3.87;1.60;;;12.10;99.90;;;;;;5105519;27;20248;-71
2021/10/21 11:44:03;;;;;;;8.80;2.20;;;12.00;99.90;;;;;;5101671;28;20600;-71
2021/10/21 11:46:31;;;;;;;7.13;1.60;;;11.80;99.90;;;;;;5106974;28;20263;-70
2021/10/21 11:49:02;;;;;;;6.93;1.97;;;11.70;99.90;;;;;;5108557;28;20244;-71
2021/10/21 11:51:32;;;;;;;8.87;1.90;;;11.80;99.90;;;;;;5097636;28;20277;-71
2021/10/21 11:54:08;;;;;;;4.17;1.60;;;12.10;99.90;;;;;;5099098;28;20605;-70
2021/10/21 11:56:38;;;;;;;4.90;1.60;;;12.20;99.90;;;;;;5102398;28;20195;-70
2021/10/21 11:59:10;;;;;;;9.43;2.07;;;12.10;99.90;;;;;;5105089;28;20255;-71
2021/10/21 12:01:39;;;;;;;8.57;1.73;;;12.10;99.90;;;;;;5106376;27;20217;-70
2021/10/21 12:04:08;;;;;;;6.70;1.70;;;12.50;99.90;;;;;;5103873;28;20317;-71
2021/10/21 12:06:42;;;;;;;10.73;2.00;;;12.80;99.90;;;;;;5104941;28;20218;-70
2021/10/21 12:09:11;;;;;;;5.00;1.50;;;12.90;99.90;;;;;;5104989;28;20258;-70
2021/10/21 12:11:42;;;;;;;6.27;1.60;;;13.10;99.90;;;;;;5101393;28;20195;-70
2021/10/21 12:14:11;;;;;;;5.17;1.83;;;12.90;99.90;;;;;;5103131;28;20195;-70
2021/10/21 12:16:39;;;;;;;8.13;2.30;;;12.80;99.90;;;;;;5105463;28;20194;-68
2021/10/21 12:19:11;;;;;;;5.70;2.10;;;12.60;99.90;;;;;;5104088;28;20187;-67
2021/10/21 12:21:42;;;;;;;6.40;1.80;;;12.50;99.90;;;;;;5100771;28;20601;-68
2021/10/21 12:24:20;;;;;;;2.53;1.57;;;12.70;99.90;;;;;;5103010;28;20203;-68
2021/10/21 12:26:54;;;;;;;1.83;1.47;;;13.10;99.90;;;;;;5101214;28;20222;-66
2021/10/21 12:29:24;;;;;;;3.20;1.30;;;13.10;99.90;;;;;;5099701;28;20846;-67
2021/10/21 12:31:52;;;;;;;3.10;1.50;;;13.00;99.90;;;;;;5098120;28;20183;-67
2021/10/21 12:34:25;;;;;;;2.33;1.40;;;12.70;99.90;;;;;;5103658;28;20583;-68
2021/10/21 12:36:55;;;;;;;3.20;1.30;;;12.70;99.90;;;;;;5100870;28;20200;-67
2021/10/21 12:39:26;;;;;;;1.67;1.10;;;12.60;99.90;;;;;;5102140;28;20952;-68
2021/10/21 12:41:56;;;;;;;1.27;1.17;;;12.60;99.90;;;;;;5103230;28;20267;-68
2021/10/21 12:44:30;;;;;;;5.90;1.27;;;12.50;99.90;;;;;;5101370;28;20565;-70
2021/10/21 12:47:11;;;;;;;2.13;1.40;;;12.40;99.90;;;;;;5105786;28;20206;-70
2021/10/21 12:49:40;;;;;;;1.50;1.10;;;12.10;99.90;;;;;;5100773;28;20255;-68
2021/10/21 12:52:12;;;;;;;3.40;1.40;;;11.90;99.90;;;;;;5100823;28;20645;-73
2021/10/21 12:54:41;;;;;;;2.30;1.20;;;11.80;99.90;;;;;;5101607;28;20599;-70
2021/10/21 12:57:18;;;;;;;4.17;1.70;;;11.60;99.90;;;;;;5101316;28;20425;-70
2021/10/21 12:59:46;;;;;;;1.33;1.23;;;11.30;99.90;;;;;;5098783;28;20390;-70
2021/10/21 13:02:15;;;;;;;2.67;1.33;;;11.10;99.90;;;;;;5100901;28;20268;-70
2021/10/21 13:04:48;;;;;;;2.77;1.50;;;11.00;99.90;;;;;;5103807;28;20229;-70
2021/10/21 13:07:19;;;;;;;3.50;1.30;;;10.90;99.90;;;;;;5101645;28;20215;-71
2021/10/21 13:09:48;;;;;;;1.67;1.27;;;10.80;99.90;;;;;;5102969;28;20252;-72
2021/10/21 13:12:18;;;;;;;1.77;1.30;;;10.80;99.90;;;;;;5098723;27;20187;-70
2021/10/21 13:14:54;;;;;;;4.57;1.37;;;10.90;99.90;;;;;;5102861;28;20202;-71
2021/10/21 13:17:22;;;;;;;3.20;1.40;;;11.10;99.90;;;;;;5098555;28;20195;-71
2021/10/21 13:19:51;;;;;;;1.60;1.37;;;11.20;99.90;;;;;;5097675;28;20301;-70
2021/10/21 13:22:20;;;;;;;4.87;1.70;;;11.20;99.90;;;;;;5101619;28;20920;-71
2021/10/21 13:24:49;;;;;;;3.80;1.67;;;11.30;99.90;;;;;;5104184;28;20223;-67